sensor_id;sensor_type;location;lat;lon;timestamp;P1;durP1;ratioP1;P2;durP2;ratioP2
24090;SDS011;12272;52.426;17.100;2023-04-25T00:00:10;3.80;;;2.83;;
24090;SDS011;12272;52.426;17.100;2023-04-25T00:05:13;3.67;;;2.50;;
24090;SDS011;12272;52.426;17.100;2023-04-25T00:10:18;3.90;;;2.90;;
24090;SDS011;12272;52.426;17.100;2023-04-25T00:15:22;4.07;;;2.57;;
24090;SDS011;12272;52.426;17.100;2023-04-25T00:20:24;2.20;;;1.67;;
24090;SDS011;12272;52.426;17.100;2023-04-25T00:25:27;2.20;;;1.48;;
24090;SDS011;12272;52.426;17.100;2023-04-25T00:30:29;3.45;;;2.33;;
24090;SDS011;12272;52.426;17.100;2023-04-25T00:35:32;3.95;;;2.78;;
24090;SDS011;12272;52.426;17.100;2023-04-25T00:40:35;2.00;;;1.57;;
24090;SDS011;12272;52.426;17.100;2023-04-25T00:45:38;2.30;;;1.53;;
24090;SDS011;12272;52.426;17.100;2023-04-25T00:50:41;3.07;;;2.47;;
24090;SDS011;12272;52.426;17.100;2023-04-25T00:55:53;2.90;;;2.13;;
24090;SDS011;12272;52.426;17.100;2023-04-25T01:00:56;1.63;;;1.50;;
24090;SDS011;12272;52.426;17.100;2023-04-25T01:05:59;2.57;;;2.00;;
24090;SDS011;12272;52.426;17.100;2023-04-25T01:11:03;2.93;;;2.03;;
24090;SDS011;12272;52.426;17.100;2023-04-25T01:16:06;3.13;;;2.00;;
24090;SDS011;12272;52.426;17.100;2023-04-25T01:21:10;2.10;;;1.53;;
24090;SDS011;12272;52.426;17.100;2023-04-25T01:26:13;2.57;;;2.17;;
24090;SDS011;12272;52.426;17.100;2023-04-25T01:31:17;3.60;;;2.30;;
24090;SDS011;12272;52.426;17.100;2023-04-25T01:36:21;2.73;;;1.27;;
24090;SDS011;12272;52.426;17.100;2023-04-25T01:41:24;2.93;;;1.80;;
24090;SDS011;12272;52.426;17.100;2023-04-25T01:46:27;2.83;;;2.07;;
24090;SDS011;12272;52.426;17.100;2023-04-25T01:51:30;2.17;;;1.77;;
24090;SDS011;12272;52.426;17.100;2023-04-25T01:56:36;2.37;;;1.60;;
24090;SDS011;12272;52.426;17.100;2023-04-25T02:01:41;3.67;;;2.00;;
24090;SDS011;12272;52.426;17.100;2023-04-25T02:06:57;2.53;;;1.92;;
24090;SDS011;12272;52.426;17.100;2023-04-25T02:12:09;1.95;;;1.75;;
24090;SDS011;12272;52.426;17.100;2023-04-25T02:17:30;2.53;;;2.00;;
24090;SDS011;12272;52.426;17.100;2023-04-25T02:22:33;3.30;;;2.20;;
24090;SDS011;12272;52.426;17.100;2023-04-25T02:27:39;3.95;;;1.80;;
24090;SDS011;12272;52.426;17.100;2023-04-25T02:32:42;2.75;;;2.03;;
24090;SDS011;12272;52.426;17.100;2023-04-25T02:37:45;2.47;;;1.90;;
24090;SDS011;12272;52.426;17.100;2023-04-25T02:42:48;2.60;;;1.90;;
24090;SDS011;12272;52.426;17.100;2023-04-25T02:47:50;2.03;;;1.80;;
24090;SDS011;12272;52.426;17.100;2023-04-25T02:52:53;1.85;;;1.50;;
24090;SDS011;12272;52.426;17.100;2023-04-25T02:58:02;2.43;;;1.90;;
24090;SDS011;12272;52.426;17.100;2023-04-25T03:03:18;2.20;;;1.73;;
24090;SDS011;12272;52.426;17.100;2023-04-25T03:08:24;2.80;;;1.92;;
24090;SDS011;12272;52.426;17.100;2023-04-25T03:13:29;2.25;;;2.05;;
24090;SDS011;12272;52.426;17.100;2023-04-25T03:18:33;2.13;;;1.50;;
24090;SDS011;12272;52.426;17.100;2023-04-25T03:23:35;3.50;;;2.25;;
24090;SDS011;12272;52.426;17.100;2023-04-25T03:28:38;1.80;;;1.63;;
24090;SDS011;12272;52.426;17.100;2023-04-25T03:33:42;2.92;;;1.95;;
24090;SDS011;12272;52.426;17.100;2023-04-25T03:38:45;2.70;;;2.03;;
24090;SDS011;12272;52.426;17.100;2023-04-25T03:43:50;2.47;;;1.85;;
24090;SDS011;12272;52.426;17.100;2023-04-25T03:48:53;2.08;;;1.73;;
24090;SDS011;12272;52.426;17.100;2023-04-25T03:54:00;4.40;;;2.38;;
24090;SDS011;12272;52.426;17.100;2023-04-25T03:59:26;3.42;;;2.10;;
24090;SDS011;12272;52.426;17.100;2023-04-25T04:04:28;2.53;;;2.10;;
24090;SDS011;12272;52.426;17.100;2023-04-25T04:09:32;2.47;;;2.20;;
24090;SDS011;12272;52.426;17.100;2023-04-25T04:14:38;2.27;;;2.07;;
24090;SDS011;12272;52.426;17.100;2023-04-25T04:19:41;3.25;;;2.35;;
24090;SDS011;12272;52.426;17.100;2023-04-25T04:24:52;2.40;;;2.00;;
24090;SDS011;12272;52.426;17.100;2023-04-25T04:30:13;5.73;;;3.17;;
24090;SDS011;12272;52.426;17.100;2023-04-25T04:35:31;2.10;;;1.63;;
24090;SDS011;12272;52.426;17.100;2023-04-25T04:40:33;2.38;;;1.73;;
24090;SDS011;12272;52.426;17.100;2023-04-25T04:46:02;2.03;;;1.83;;
24090;SDS011;12272;52.426;17.100;2023-04-25T04:51:17;4.63;;;2.83;;
24090;SDS011;12272;52.426;17.100;2023-04-25T04:56:31;5.22;;;3.15;;
24090;SDS011;12272;52.426;17.100;2023-04-25T05:01:49;3.60;;;2.40;;
24090;SDS011;12272;52.426;17.100;2023-04-25T05:07:00;1.80;;;1.60;;
24090;SDS011;12272;52.426;17.100;2023-04-25T05:12:06;3.20;;;2.63;;
24090;SDS011;12272;52.426;17.100;2023-04-25T05:17:23;3.42;;;3.08;;
24090;SDS011;12272;52.426;17.100;2023-04-25T05:22:45;1.55;;;1.45;;
24090;SDS011;12272;52.426;17.100;2023-04-25T05:27:53;2.30;;;2.10;;
24090;SDS011;12272;52.426;17.100;2023-04-25T05:33:16;2.70;;;2.10;;
24090;SDS011;12272;52.426;17.100;2023-04-25T05:38:19;2.92;;;2.63;;
24090;SDS011;12272;52.426;17.100;2023-04-25T05:43:40;2.90;;;2.00;;
24090;SDS011;12272;52.426;17.100;2023-04-25T05:49:02;2.43;;;1.73;;
24090;SDS011;12272;52.426;17.100;2023-04-25T05:54:17;6.65;;;2.20;;
24090;SDS011;12272;52.426;17.100;2023-04-25T05:59:20;1.23;;;1.03;;
24090;SDS011;12272;52.426;17.100;2023-04-25T06:04:22;2.70;;;2.17;;
24090;SDS011;12272;52.426;17.100;2023-04-25T06:09:26;2.17;;;1.13;;
24090;SDS011;12272;52.426;17.100;2023-04-25T06:14:29;2.87;;;2.27;;
24090;SDS011;12272;52.426;17.100;2023-04-25T06:19:33;7.23;;;3.20;;
24090;SDS011;12272;52.426;17.100;2023-04-25T06:24:36;2.60;;;2.33;;
24090;SDS011;12272;52.426;17.100;2023-04-25T06:29:39;3.80;;;2.70;;
24090;SDS011;12272;52.426;17.100;2023-04-25T06:34:42;3.07;;;2.20;;
24090;SDS011;12272;52.426;17.100;2023-04-25T06:39:45;3.50;;;1.07;;
24090;SDS011;12272;52.426;17.100;2023-04-25T06:44:49;2.97;;;2.27;;
24090;SDS011;12272;52.426;17.100;2023-04-25T06:49:53;8.90;;;2.13;;
24090;SDS011;12272;52.426;17.100;2023-04-25T06:54:57;3.60;;;1.77;;
24090;SDS011;12272;52.426;17.100;2023-04-25T07:00:13;3.80;;;2.47;;
24090;SDS011;12272;52.426;17.100;2023-04-25T07:05:17;3.50;;;1.80;;
24090;SDS011;12272;52.426;17.100;2023-04-25T07:10:21;5.77;;;2.37;;
24090;SDS011;12272;52.426;17.100;2023-04-25T07:15:24;5.07;;;2.27;;
24090;SDS011;12272;52.426;17.100;2023-04-25T07:20:31;5.90;;;2.37;;
24090;SDS011;12272;52.426;17.100;2023-04-25T07:25:36;4.73;;;2.10;;
24090;SDS011;12272;52.426;17.100;2023-04-25T07:30:38;3.83;;;1.97;;
24090;SDS011;12272;52.426;17.100;2023-04-25T07:35:41;4.80;;;2.67;;
24090;SDS011;12272;52.426;17.100;2023-04-25T07:40:45;0.83;;;0.83;;
24090;SDS011;12272;52.426;17.100;2023-04-25T07:45:47;4.03;;;1.67;;
24090;SDS011;12272;52.426;17.100;2023-04-25T07:50:52;6.03;;;2.00;;
24090;SDS011;12272;52.426;17.100;2023-04-25T07:55:56;5.27;;;2.70;;
24090;SDS011;12272;52.426;17.100;2023-04-25T08:00:58;2.87;;;1.90;;
24090;SDS011;12272;52.426;17.100;2023-04-25T08:06:01;4.90;;;2.33;;
24090;SDS011;12272;52.426;17.100;2023-04-25T08:11:14;4.10;;;1.93;;
24090;SDS011;12272;52.426;17.100;2023-04-25T08:16:17;1.87;;;1.67;;
24090;SDS011;12272;52.426;17.100;2023-04-25T08:21:21;1.97;;;1.77;;
24090;SDS011;12272;52.426;17.100;2023-04-25T08:26:24;3.90;;;3.00;;
24090;SDS011;12272;52.426;17.100;2023-04-25T08:31:27;4.60;;;2.33;;
24090;SDS011;12272;52.426;17.100;2023-04-25T08:36:33;3.53;;;2.50;;
24090;SDS011;12272;52.426;17.100;2023-04-25T08:42:02;4.20;;;2.80;;
24090;SDS011;12272;52.426;17.100;2023-04-25T08:47:08;2.25;;;2.00;;
24090;SDS011;12272;52.426;17.100;2023-04-25T08:52:19;8.00;;;3.07;;
24090;SDS011;12272;52.426;17.100;2023-04-25T08:57:26;6.13;;;2.95;;
24090;SDS011;12272;52.426;17.100;2023-04-25T09:02:31;2.58;;;2.20;;
24090;SDS011;12272;52.426;17.100;2023-04-25T09:07:36;4.72;;;2.13;;
24090;SDS011;12272;52.426;17.100;2023-04-25T09:12:40;4.33;;;2.43;;
24090;SDS011;12272;52.426;17.100;2023-04-25T09:17:43;2.47;;;2.03;;
24090;SDS011;12272;52.426;17.100;2023-04-25T09:22:46;2.07;;;1.63;;
24090;SDS011;12272;52.426;17.100;2023-04-25T09:27:50;3.47;;;2.40;;
24090;SDS011;12272;52.426;17.100;2023-04-25T09:33:06;3.07;;;2.03;;
24090;SDS011;12272;52.426;17.100;2023-04-25T09:38:13;3.40;;;2.17;;
24090;SDS011;12272;52.426;17.100;2023-04-25T09:43:26;5.77;;;3.67;;
24090;SDS011;12272;52.426;17.100;2023-04-25T09:48:30;1.63;;;1.15;;
24090;SDS011;12272;52.426;17.100;2023-04-25T09:53:41;4.17;;;2.00;;
24090;SDS011;12272;52.426;17.100;2023-04-25T09:59:14;3.73;;;2.23;;
24090;SDS011;12272;52.426;17.100;2023-04-25T10:04:27;1.37;;;1.27;;
24090;SDS011;12272;52.426;17.100;2023-04-25T10:09:40;3.60;;;2.40;;
24090;SDS011;12272;52.426;17.100;2023-04-25T10:14:44;4.27;;;1.83;;
24090;SDS011;12272;52.426;17.100;2023-04-25T10:19:48;2.05;;;1.45;;
24090;SDS011;12272;52.426;17.100;2023-04-25T10:24:51;4.00;;;1.37;;
24090;SDS011;12272;52.426;17.100;2023-04-25T10:30:01;2.42;;;1.92;;
24090;SDS011;12272;52.426;17.100;2023-04-25T10:40:21;4.53;;;3.28;;
24090;SDS011;12272;52.426;17.100;2023-04-25T10:45:24;4.07;;;2.43;;
24090;SDS011;12272;52.426;17.100;2023-04-25T10:50:36;1.67;;;1.50;;
24090;SDS011;12272;52.426;17.100;2023-04-25T10:55:50;2.30;;;1.77;;
24090;SDS011;12272;52.426;17.100;2023-04-25T11:00:53;2.47;;;2.27;;
24090;SDS011;12272;52.426;17.100;2023-04-25T11:05:58;2.30;;;1.70;;
24090;SDS011;12272;52.426;17.100;2023-04-25T11:11:03;5.03;;;2.40;;
24090;SDS011;12272;52.426;17.100;2023-04-25T11:16:09;4.87;;;2.57;;
24090;SDS011;12272;52.426;17.100;2023-04-25T11:21:14;1.58;;;1.48;;
24090;SDS011;12272;52.426;17.100;2023-04-25T11:26:19;2.23;;;1.97;;
24090;SDS011;12272;52.426;17.100;2023-04-25T11:31:22;1.88;;;1.73;;
24090;SDS011;12272;52.426;17.100;2023-04-25T11:36:27;3.03;;;2.00;;
24090;SDS011;12272;52.426;17.100;2023-04-25T11:41:29;2.58;;;2.33;;
24090;SDS011;12272;52.426;17.100;2023-04-25T11:46:35;5.13;;;2.90;;
24090;SDS011;12272;52.426;17.100;2023-04-25T11:51:38;1.60;;;1.50;;
24090;SDS011;12272;52.426;17.100;2023-04-25T11:56:42;2.87;;;1.97;;
24090;SDS011;12272;52.426;17.100;2023-04-25T12:01:49;1.98;;;1.52;;
24090;SDS011;12272;52.426;17.100;2023-04-25T12:06:53;3.92;;;1.10;;
24090;SDS011;12272;52.426;17.100;2023-04-25T12:11:57;2.67;;;2.00;;
24090;SDS011;12272;52.426;17.100;2023-04-25T12:17:05;2.03;;;1.83;;
24090;SDS011;12272;52.426;17.100;2023-04-25T12:22:23;2.63;;;1.80;;
24090;SDS011;12272;52.426;17.100;2023-04-25T12:27:26;2.93;;;2.00;;
24090;SDS011;12272;52.426;17.100;2023-04-25T12:32:29;3.83;;;2.40;;
24090;SDS011;12272;52.426;17.100;2023-04-25T12:37:31;3.47;;;2.10;;
24090;SDS011;12272;52.426;17.100;2023-04-25T12:42:34;1.43;;;1.33;;
24090;SDS011;12272;52.426;17.100;2023-04-25T12:47:37;2.43;;;1.87;;
24090;SDS011;12272;52.426;17.100;2023-04-25T12:52:39;1.90;;;1.50;;
24090;SDS011;12272;52.426;17.100;2023-04-25T12:57:41;3.27;;;1.87;;
24090;SDS011;12272;52.426;17.100;2023-04-25T13:02:44;2.65;;;2.03;;
24090;SDS011;12272;52.426;17.100;2023-04-25T13:07:48;2.80;;;1.83;;
24090;SDS011;12272;52.426;17.100;2023-04-25T13:12:51;2.10;;;1.73;;
24090;SDS011;12272;52.426;17.100;2023-04-25T13:17:53;1.73;;;1.63;;
24090;SDS011;12272;52.426;17.100;2023-04-25T13:22:56;2.70;;;1.70;;
24090;SDS011;12272;52.426;17.100;2023-04-25T13:28:01;3.07;;;1.80;;
24090;SDS011;12272;52.426;17.100;2023-04-25T13:33:03;2.30;;;1.53;;
24090;SDS011;12272;52.426;17.100;2023-04-25T13:38:08;2.80;;;1.80;;
24090;SDS011;12272;52.426;17.100;2023-04-25T13:43:11;3.27;;;1.60;;
24090;SDS011;12272;52.426;17.100;2023-04-25T13:48:14;2.08;;;1.58;;
24090;SDS011;12272;52.426;17.100;2023-04-25T13:53:16;1.43;;;1.33;;
24090;SDS011;12272;52.426;17.100;2023-04-25T13:58:19;1.97;;;1.77;;
24090;SDS011;12272;52.426;17.100;2023-04-25T14:03:22;2.90;;;1.40;;
24090;SDS011;12272;52.426;17.100;2023-04-25T14:08:25;5.20;;;1.67;;
24090;SDS011;12272;52.426;17.100;2023-04-25T14:13:27;1.60;;;1.50;;
24090;SDS011;12272;52.426;17.100;2023-04-25T14:18:30;5.30;;;2.70;;
24090;SDS011;12272;52.426;17.100;2023-04-25T14:23:33;2.63;;;1.90;;
24090;SDS011;12272;52.426;17.100;2023-04-25T14:28:35;6.73;;;2.13;;
24090;SDS011;12272;52.426;17.100;2023-04-25T14:33:38;2.33;;;1.90;;
24090;SDS011;12272;52.426;17.100;2023-04-25T14:38:43;2.23;;;1.57;;
24090;SDS011;12272;52.426;17.100;2023-04-25T14:43:46;8.60;;;3.33;;
24090;SDS011;12272;52.426;17.100;2023-04-25T14:48:49;2.03;;;1.47;;
24090;SDS011;12272;52.426;17.100;2023-04-25T14:53:53;3.70;;;2.33;;
24090;SDS011;12272;52.426;17.100;2023-04-25T14:58:56;2.80;;;2.13;;
24090;SDS011;12272;52.426;17.100;2023-04-25T15:03:58;4.40;;;1.70;;
24090;SDS011;12272;52.426;17.100;2023-04-25T15:09:01;8.43;;;4.80;;
24090;SDS011;12272;52.426;17.100;2023-04-25T15:14:04;2.00;;;1.80;;
24090;SDS011;12272;52.426;17.100;2023-04-25T15:19:06;3.93;;;1.67;;
24090;SDS011;12272;52.426;17.100;2023-04-25T15:24:10;2.07;;;1.50;;
24090;SDS011;12272;52.426;17.100;2023-04-25T15:29:13;4.20;;;1.60;;
24090;SDS011;12272;52.426;17.100;2023-04-25T15:34:15;30.07;;;3.70;;
24090;SDS011;12272;52.426;17.100;2023-04-25T15:39:18;14.97;;;4.47;;
24090;SDS011;12272;52.426;17.100;2023-04-25T15:44:20;12.03;;;2.87;;
24090;SDS011;12272;52.426;17.100;2023-04-25T15:49:23;10.43;;;3.40;;
24090;SDS011;12272;52.426;17.100;2023-04-25T15:54:26;13.05;;;3.20;;
24090;SDS011;12272;52.426;17.100;2023-04-25T15:59:28;6.30;;;2.53;;
24090;SDS011;12272;52.426;17.100;2023-04-25T16:04:31;8.00;;;3.13;;
24090;SDS011;12272;52.426;17.100;2023-04-25T16:09:36;7.57;;;3.03;;
24090;SDS011;12272;52.426;17.100;2023-04-25T16:14:39;9.30;;;3.30;;
24090;SDS011;12272;52.426;17.100;2023-04-25T16:19:42;7.57;;;3.47;;
24090;SDS011;12272;52.426;17.100;2023-04-25T16:24:45;12.80;;;2.87;;
24090;SDS011;12272;52.426;17.100;2023-04-25T16:29:47;5.30;;;2.72;;
24090;SDS011;12272;52.426;17.100;2023-04-25T16:34:52;8.82;;;3.08;;
24090;SDS011;12272;52.426;17.100;2023-04-25T16:39:54;13.60;;;3.72;;
24090;SDS011;12272;52.426;17.100;2023-04-25T16:44:57;7.65;;;3.22;;
24090;SDS011;12272;52.426;17.100;2023-04-25T16:49:59;5.47;;;3.45;;
24090;SDS011;12272;52.426;17.100;2023-04-25T16:55:02;9.27;;;3.80;;
24090;SDS011;12272;52.426;17.100;2023-04-25T17:00:05;4.88;;;2.90;;
24090;SDS011;12272;52.426;17.100;2023-04-25T17:05:10;12.25;;;3.33;;
24090;SDS011;12272;52.426;17.100;2023-04-25T17:10:13;13.95;;;3.47;;
24090;SDS011;12272;52.426;17.100;2023-04-25T17:15:15;6.93;;;2.80;;
24090;SDS011;12272;52.426;17.100;2023-04-25T17:20:18;8.77;;;3.53;;
24090;SDS011;12272;52.426;17.100;2023-04-25T17:25:21;10.35;;;3.10;;
24090;SDS011;12272;52.426;17.100;2023-04-25T17:30:23;9.82;;;3.58;;
24090;SDS011;12272;52.426;17.100;2023-04-25T17:35:27;6.43;;;3.88;;
24090;SDS011;12272;52.426;17.100;2023-04-25T17:40:30;10.35;;;3.33;;
24090;SDS011;12272;52.426;17.100;2023-04-25T17:45:32;10.98;;;3.25;;
24090;SDS011;12272;52.426;17.100;2023-04-25T17:50:36;6.35;;;2.70;;
24090;SDS011;12272;52.426;17.100;2023-04-25T17:55:39;12.13;;;4.22;;
24090;SDS011;12272;52.426;17.100;2023-04-25T18:00:44;8.90;;;3.30;;
24090;SDS011;12272;52.426;17.100;2023-04-25T18:05:47;7.32;;;3.30;;
24090;SDS011;12272;52.426;17.100;2023-04-25T18:10:49;12.18;;;5.20;;
24090;SDS011;12272;52.426;17.100;2023-04-25T18:15:53;10.07;;;4.20;;
24090;SDS011;12272;52.426;17.100;2023-04-25T18:20:58;10.23;;;4.57;;
24090;SDS011;12272;52.426;17.100;2023-04-25T18:26:04;10.37;;;4.70;;
24090;SDS011;12272;52.426;17.100;2023-04-25T18:31:07;16.67;;;5.33;;
24090;SDS011;12272;52.426;17.100;2023-04-25T18:36:10;12.27;;;4.93;;
24090;SDS011;12272;52.426;17.100;2023-04-25T18:41:13;11.93;;;6.43;;
24090;SDS011;12272;52.426;17.100;2023-04-25T18:46:21;12.00;;;5.47;;
24090;SDS011;12272;52.426;17.100;2023-04-25T18:51:24;10.00;;;5.00;;
24090;SDS011;12272;52.426;17.100;2023-04-25T18:56:32;18.07;;;5.33;;
24090;SDS011;12272;52.426;17.100;2023-04-25T19:01:34;8.97;;;5.43;;
24090;SDS011;12272;52.426;17.100;2023-04-25T19:06:37;13.23;;;6.20;;
24090;SDS011;12272;52.426;17.100;2023-04-25T19:11:39;15.27;;;6.33;;
24090;SDS011;12272;52.426;17.100;2023-04-25T19:16:42;10.50;;;5.32;;
24090;SDS011;12272;52.426;17.100;2023-04-25T19:21:45;8.33;;;5.33;;
24090;SDS011;12272;52.426;17.100;2023-04-25T19:26:47;9.67;;;5.20;;
24090;SDS011;12272;52.426;17.100;2023-04-25T19:31:50;11.97;;;5.23;;
24090;SDS011;12272;52.426;17.100;2023-04-25T19:36:52;9.23;;;5.50;;
24090;SDS011;12272;52.426;17.100;2023-04-25T19:41:56;10.50;;;5.13;;
24090;SDS011;12272;52.426;17.100;2023-04-25T19:46:59;6.40;;;4.13;;
24090;SDS011;12272;52.426;17.100;2023-04-25T19:52:02;8.93;;;3.80;;
24090;SDS011;12272;52.426;17.100;2023-04-25T19:57:07;8.57;;;4.33;;
24090;SDS011;12272;52.426;17.100;2023-04-25T20:02:10;6.22;;;3.65;;
24090;SDS011;12272;52.426;17.100;2023-04-25T20:07:12;5.10;;;3.70;;
24090;SDS011;12272;52.426;17.100;2023-04-25T20:12:16;6.18;;;3.55;;
24090;SDS011;12272;52.426;17.100;2023-04-25T20:17:18;9.43;;;3.45;;
24090;SDS011;12272;52.426;17.100;2023-04-25T20:22:21;8.18;;;4.38;;
24090;SDS011;12272;52.426;17.100;2023-04-25T20:27:24;6.32;;;3.78;;
24090;SDS011;12272;52.426;17.100;2023-04-25T20:32:28;8.98;;;4.00;;
24090;SDS011;12272;52.426;17.100;2023-04-25T20:37:35;8.93;;;4.03;;
24090;SDS011;12272;52.426;17.100;2023-04-25T20:42:38;7.65;;;4.10;;
24090;SDS011;12272;52.426;17.100;2023-04-25T20:47:41;4.82;;;3.53;;
24090;SDS011;12272;52.426;17.100;2023-04-25T20:52:45;5.88;;;3.55;;
24090;SDS011;12272;52.426;17.100;2023-04-25T20:57:48;5.57;;;3.03;;
24090;SDS011;12272;52.426;17.100;2023-04-25T21:02:51;4.88;;;3.08;;
24090;SDS011;12272;52.426;17.100;2023-04-25T21:07:54;6.53;;;3.42;;
24090;SDS011;12272;52.426;17.100;2023-04-25T21:12:58;7.70;;;3.92;;
24090;SDS011;12272;52.426;17.100;2023-04-25T21:18:01;9.83;;;2.90;;
24090;SDS011;12272;52.426;17.100;2023-04-25T21:23:03;8.48;;;3.42;;
24090;SDS011;12272;52.426;17.100;2023-04-25T21:28:06;4.25;;;3.20;;
24090;SDS011;12272;52.426;17.100;2023-04-25T21:33:09;6.43;;;3.67;;
24090;SDS011;12272;52.426;17.100;2023-04-25T21:38:12;5.67;;;3.07;;
24090;SDS011;12272;52.426;17.100;2023-04-25T21:43:16;4.90;;;2.87;;
24090;SDS011;12272;52.426;17.100;2023-04-25T21:48:19;8.38;;;3.95;;
24090;SDS011;12272;52.426;17.100;2023-04-25T21:53:21;5.18;;;2.72;;
24090;SDS011;12272;52.426;17.100;2023-04-25T21:58:25;6.47;;;2.80;;
24090;SDS011;12272;52.426;17.100;2023-04-25T22:03:28;4.45;;;2.90;;
24090;SDS011;12272;52.426;17.100;2023-04-25T22:08:33;5.70;;;2.73;;
24090;SDS011;12272;52.426;17.100;2023-04-25T22:13:36;6.38;;;2.58;;
24090;SDS011;12272;52.426;17.100;2023-04-25T22:18:39;10.10;;;3.35;;
24090;SDS011;12272;52.426;17.100;2023-04-25T22:23:42;6.67;;;3.83;;
24090;SDS011;12272;52.426;17.100;2023-04-25T22:28:45;10.67;;;3.93;;
24090;SDS011;12272;52.426;17.100;2023-04-25T22:33:47;12.33;;;5.53;;
24090;SDS011;12272;52.426;17.100;2023-04-25T22:38:50;15.80;;;5.43;;
24090;SDS011;12272;52.426;17.100;2023-04-25T22:43:54;14.20;;;5.20;;
24090;SDS011;12272;52.426;17.100;2023-04-25T22:48:56;6.10;;;3.83;;
24090;SDS011;12272;52.426;17.100;2023-04-25T22:53:59;10.17;;;4.33;;
24090;SDS011;12272;52.426;17.100;2023-04-25T22:59:02;11.80;;;4.57;;
24090;SDS011;12272;52.426;17.100;2023-04-25T23:04:06;7.13;;;3.90;;
24090;SDS011;12272;52.426;17.100;2023-04-25T23:09:10;9.03;;;4.73;;
24090;SDS011;12272;52.426;17.100;2023-04-25T23:14:15;9.50;;;4.67;;
24090;SDS011;12272;52.426;17.100;2023-04-25T23:19:18;6.57;;;4.15;;
24090;SDS011;12272;52.426;17.100;2023-04-25T23:24:21;8.05;;;4.88;;
24090;SDS011;12272;52.426;17.100;2023-04-25T23:29:23;9.00;;;3.60;;
24090;SDS011;12272;52.426;17.100;2023-04-25T23:34:29;5.88;;;3.55;;
24090;SDS011;12272;52.426;17.100;2023-04-25T23:39:32;4.63;;;3.10;;
24090;SDS011;12272;52.426;17.100;2023-04-25T23:44:35;6.03;;;3.95;;
24090;SDS011;12272;52.426;17.100;2023-04-25T23:49:38;5.72;;;3.58;;
24090;SDS011;12272;52.426;17.100;2023-04-25T23:54:41;3.67;;;2.70;;
24090;SDS011;12272;52.426;17.100;2023-04-25T23:59:43;9.47;;;3.20;;
